createdAt,value
2018-07-20T06:10:02.760Z,9.27
2018-07-20T06:12:30.876Z,9.47
2018-07-20T06:14:59.189Z,11.40
2018-07-20T06:17:27.271Z,11.53
2018-07-20T06:19:55.365Z,11.73
2018-07-20T06:22:23.435Z,8.00
2018-07-20T06:24:51.521Z,9.07
2018-07-20T06:27:19.618Z,8.33
2018-07-20T06:29:48.589Z,7.70
2018-07-20T06:32:16.677Z,7.90
2018-07-20T06:34:44.757Z,7.55
2018-07-20T06:37:12.872Z,8.37
2018-07-20T06:39:40.958Z,7.77
2018-07-20T06:42:09.041Z,10.93
2018-07-20T06:44:37.567Z,8.23
2018-07-20T06:47:05.666Z,9.20
2018-07-20T06:49:33.768Z,10.93
2018-07-20T06:52:01.904Z,9.43
2018-07-20T06:54:29.991Z,10.60
2018-07-20T06:56:58.130Z,7.37
2018-07-20T06:59:26.260Z,7.10
2018-07-20T07:01:54.348Z,8.10
2018-07-20T07:04:22.455Z,9.27
2018-07-20T07:06:50.555Z,8.00
2018-07-20T07:09:18.674Z,9.15
2018-07-20T07:11:46.754Z,9.13
2018-07-20T07:14:14.883Z,9.93
2018-07-20T07:16:43.016Z,7.03
2018-07-20T07:19:11.242Z,10.00
2018-07-20T07:21:39.376Z,9.35
2018-07-20T07:24:07.756Z,12.00
2018-07-20T07:26:35.987Z,12.17
2018-07-20T07:29:04.094Z,8.30
2018-07-20T07:31:33.205Z,7.73
2018-07-20T07:34:01.420Z,13.80
2018-07-20T07:36:29.509Z,9.60
2018-07-20T07:38:57.630Z,10.30
2018-07-20T07:41:25.741Z,8.13
2018-07-20T07:43:53.885Z,9.63
2018-07-20T07:46:22.009Z,8.93
2018-07-20T07:48:50.148Z,6.92
2018-07-20T07:51:18.240Z,11.00
2018-07-20T07:53:46.364Z,6.87
2018-07-20T07:56:14.438Z,9.20
2018-07-20T07:58:42.552Z,9.60
2018-07-20T08:01:10.670Z,7.03
2018-07-20T08:03:39.675Z,8.55
2018-07-20T08:06:07.755Z,7.17
2018-07-20T08:08:35.861Z,7.40
2018-07-20T08:11:03.949Z,7.00
2018-07-20T08:13:32.062Z,5.33
2018-07-20T08:16:00.153Z,7.40
2018-07-20T08:18:28.251Z,16.77
2018-07-20T08:20:56.343Z,5.27
2018-07-20T08:23:24.451Z,5.28
2018-07-20T08:25:52.535Z,4.73
2018-07-20T08:28:20.634Z,7.70
2018-07-20T08:30:48.708Z,6.00
2018-07-20T08:33:16.804Z,9.47
2018-07-20T08:35:44.890Z,10.30
2018-07-20T08:38:12.989Z,5.23
2018-07-20T08:40:41.078Z,5.23
2018-07-20T08:43:09.179Z,8.20
2018-07-20T08:45:37.265Z,5.57
2018-07-20T08:48:05.359Z,7.70
2018-07-20T08:50:33.426Z,4.93
2018-07-20T08:53:01.532Z,4.93
2018-07-20T08:55:29.640Z,7.60
2018-07-20T08:57:57.732Z,7.67
2018-07-20T09:00:25.848Z,4.50
2018-07-20T09:03:00.276Z,9.80
2018-07-20T09:05:28.416Z,5.57
2018-07-20T09:07:56.521Z,4.77
2018-07-20T09:10:24.626Z,6.60
2018-07-20T09:12:52.804Z,3.93
2018-07-20T09:15:20.892Z,4.53
2018-07-20T09:17:48.984Z,4.40
2018-07-20T09:20:17.100Z,3.50
2018-07-20T09:22:45.194Z,4.90
2018-07-20T09:25:13.282Z,3.73
2018-07-20T09:27:42.068Z,6.47
2018-07-20T09:30:10.189Z,4.90
2018-07-20T09:32:38.288Z,5.30
2018-07-20T09:35:06.389Z,4.53
2018-07-20T09:37:34.464Z,4.00
2018-07-20T09:40:02.556Z,7.33
2018-07-20T09:42:30.639Z,3.70
2018-07-20T09:44:58.742Z,7.07
2018-07-20T09:47:26.824Z,9.63
2018-07-20T09:49:54.930Z,6.97
2018-07-20T09:52:22.990Z,7.00
2018-07-20T09:54:51.366Z,6.37
2018-07-20T09:57:19.720Z,4.27
2018-07-20T09:59:47.904Z,4.15
2018-07-20T10:02:15.989Z,4.27
2018-07-20T10:04:44.507Z,6.08
2018-07-20T10:07:13.396Z,3.92
2018-07-20T10:09:41.501Z,5.30
2018-07-20T10:12:10.088Z,3.77
2018-07-20T10:14:38.170Z,4.63
2018-07-20T10:17:06.737Z,4.47
2018-07-20T10:19:34.971Z,3.77
2018-07-20T10:22:03.067Z,5.50
2018-07-20T10:24:31.183Z,3.80
2018-07-20T10:26:59.274Z,4.20
2018-07-20T10:29:27.384Z,3.30
2018-07-20T10:31:55.464Z,4.20
2018-07-20T10:34:23.557Z,4.53
2018-07-20T10:36:52.603Z,4.93
2018-07-20T10:39:22.387Z,10.17
2018-07-20T10:41:50.950Z,4.50
2018-07-20T10:44:19.328Z,4.80
2018-07-20T10:46:47.435Z,3.30
2018-07-20T10:49:15.819Z,6.17
2018-07-20T10:51:44.774Z,4.75
2018-07-20T10:54:12.955Z,4.40
2018-07-20T10:56:41.065Z,4.23
2018-07-20T10:59:10.155Z,3.37
2018-07-20T11:01:38.415Z,3.83
2018-07-20T11:04:06.655Z,4.57
2018-07-20T11:06:34.759Z,3.87
2018-07-20T11:09:02.870Z,8.50
2018-07-20T11:11:31.095Z,3.73
2018-07-20T11:13:59.200Z,3.27
2018-07-20T11:16:27.278Z,3.73
2018-07-20T11:18:55.371Z,5.93
2018-07-20T11:21:23.473Z,3.23
2018-07-20T11:23:51.562Z,3.00
2018-07-20T11:26:19.666Z,6.50
2018-07-20T11:28:47.740Z,2.93
2018-07-20T11:31:15.916Z,5.80
2018-07-20T11:36:18.366Z,5.10
2018-07-20T11:38:46.448Z,4.70
2018-07-20T11:41:14.542Z,3.13
2018-07-20T11:43:42.612Z,3.60
2018-07-20T11:46:10.724Z,4.60
2018-07-20T11:48:38.807Z,5.00
2018-07-20T11:51:06.886Z,4.73
2018-07-20T11:53:34.983Z,4.40
2018-07-20T11:56:03.121Z,4.03
2018-07-20T11:58:31.174Z,3.30
2018-07-20T12:00:59.294Z,3.00
2018-07-20T12:03:27.397Z,3.10
2018-07-20T12:05:55.514Z,2.83
2018-07-20T12:08:23.750Z,2.87
2018-07-20T12:10:51.836Z,3.10
2018-07-20T12:13:19.910Z,3.00
2018-07-20T12:15:48.011Z,3.40
2018-07-20T12:18:17.429Z,4.95
2018-07-20T12:20:45.528Z,7.60
2018-07-20T12:23:13.617Z,5.03
2018-07-20T12:25:41.870Z,4.40
2018-07-20T12:28:09.998Z,3.80
2018-07-20T12:30:38.051Z,9.27
2018-07-20T12:33:06.218Z,5.63
2018-07-20T12:35:34.295Z,3.30
2018-07-20T12:38:02.404Z,4.50
2018-07-20T12:40:30.574Z,4.30
2018-07-20T12:42:58.666Z,4.58
2018-07-20T12:45:26.753Z,6.03
2018-07-20T12:47:54.850Z,8.60
2018-07-20T12:50:22.969Z,9.13
2018-07-20T12:52:51.038Z,13.03
2018-07-20T12:55:19.123Z,6.90
2018-07-20T13:07:32.295Z,4.47
2018-07-20T13:10:00.399Z,4.43
2018-07-20T13:12:28.505Z,4.17
2018-07-20T13:14:56.599Z,3.10
2018-07-20T13:17:24.699Z,4.67
2018-07-20T13:19:53.063Z,3.90
2018-07-20T13:22:21.157Z,3.80
2018-07-20T13:24:49.271Z,6.20
2018-07-20T13:27:17.803Z,2.97
2018-07-20T13:29:45.974Z,5.83
2018-07-20T13:32:14.058Z,5.43
2018-07-20T13:34:42.142Z,4.70
2018-07-20T13:37:10.230Z,4.63
2018-07-20T13:39:38.409Z,3.50
2018-07-20T13:42:06.487Z,5.63
2018-07-20T13:44:34.591Z,2.90
2018-07-20T13:47:02.695Z,5.90
2018-07-20T13:49:30.800Z,2.83
2018-07-20T13:51:58.914Z,6.63
2018-07-20T13:54:27.037Z,3.30
2018-07-20T13:56:55.126Z,3.05
2018-07-20T13:59:23.229Z,3.40
2018-07-20T14:01:51.317Z,2.90
2018-07-20T14:04:19.418Z,3.08
2018-07-20T14:06:47.510Z,3.77
2018-07-20T14:09:15.593Z,4.22
2018-07-20T14:11:43.687Z,2.80
2018-07-20T14:14:11.830Z,7.73
2018-07-20T14:16:39.912Z,5.83
2018-07-20T14:19:08.099Z,5.20
2018-07-20T14:21:36.223Z,5.93
2018-07-20T14:24:04.395Z,4.00
2018-07-20T14:26:32.561Z,3.60
2018-07-20T14:29:00.655Z,4.93
2018-07-20T14:31:28.835Z,3.17
2018-07-20T14:33:56.859Z,4.90
2018-07-20T14:36:25.027Z,5.13
2018-07-20T14:38:53.165Z,5.03
2018-07-20T14:41:21.856Z,4.00
2018-07-20T14:43:49.942Z,3.83
2018-07-20T14:46:18.043Z,5.47
2018-07-20T14:48:46.126Z,4.63
2018-07-20T14:51:14.542Z,4.47
2018-07-20T14:53:42.622Z,5.50
2018-07-20T14:56:10.710Z,9.37
2018-07-20T14:58:38.803Z,7.03
2018-07-20T15:01:06.875Z,4.27
2018-07-20T15:03:34.958Z,3.70
2018-07-20T15:06:03.043Z,3.30
2018-07-20T15:08:31.149Z,5.80
2018-07-20T15:10:59.217Z,4.43
2018-07-20T15:13:27.309Z,3.07
2018-07-20T15:15:55.390Z,3.57
2018-07-20T15:18:23.499Z,2.67
2018-07-20T15:20:51.588Z,3.33
2018-07-20T15:23:19.695Z,4.03
2018-07-20T15:25:47.757Z,4.27
2018-07-20T15:28:15.841Z,4.10
2018-07-20T15:30:44.228Z,3.50
2018-07-20T15:33:12.382Z,5.20
2018-07-20T15:35:40.485Z,3.43
2018-07-20T15:38:08.621Z,4.83
2018-07-20T15:40:36.671Z,5.10
2018-07-20T15:43:04.758Z,4.70
2018-07-20T15:45:32.846Z,2.90
2018-07-20T15:48:00.925Z,3.23
2018-07-20T15:50:29.009Z,3.30
2018-07-20T15:53:36.280Z,4.23
2018-07-20T15:55:25.190Z,4.73
2018-07-20T15:57:53.253Z,3.40
2018-07-20T16:00:21.368Z,2.77
2018-07-20T16:02:49.468Z,3.67
2018-07-20T16:05:17.582Z,3.10
2018-07-20T16:07:45.675Z,2.40
2018-07-20T16:10:13.758Z,4.77
2018-07-20T16:12:42.094Z,3.67
2018-07-20T16:15:10.186Z,4.13
2018-07-20T16:17:38.270Z,3.10
2018-07-20T16:20:06.359Z,5.37
2018-07-20T16:22:34.471Z,3.73
2018-07-20T16:25:02.572Z,3.53
2018-07-20T16:27:30.680Z,4.70
2018-07-20T16:29:58.778Z,3.50
2018-07-20T16:32:26.875Z,3.40
2018-07-20T16:34:54.950Z,5.87
2018-07-20T16:37:23.040Z,3.73
2018-07-20T16:39:51.115Z,6.00
2018-07-20T16:42:19.204Z,4.30
2018-07-20T16:44:47.323Z,4.63
2018-07-20T16:47:15.450Z,3.40
2018-07-20T16:49:43.538Z,4.65
2018-07-20T16:52:11.639Z,3.50
2018-07-20T16:54:39.721Z,4.93
2018-07-20T16:57:07.915Z,6.10
2018-07-20T16:59:36.004Z,5.10
2018-07-20T17:02:04.130Z,3.83
2018-07-20T17:04:33.209Z,6.40
2018-07-20T17:07:01.303Z,7.90
2018-07-20T17:09:30.381Z,4.20
2018-07-20T17:11:58.487Z,3.63
2018-07-20T17:14:26.566Z,3.00
2018-07-20T17:16:54.655Z,4.53
2018-07-20T17:19:22.802Z,6.40
2018-07-20T17:21:50.827Z,3.03
2018-07-20T17:24:18.916Z,3.20
2018-07-20T17:26:47.008Z,3.70
2018-07-20T17:29:15.075Z,4.00
2018-07-20T17:31:43.189Z,4.40
2018-07-20T17:34:11.279Z,4.20
2018-07-20T17:36:39.359Z,8.73
2018-07-20T17:39:09.413Z,5.20
2018-07-20T17:41:37.511Z,6.07
2018-07-20T17:44:05.606Z,7.60
2018-07-20T17:46:33.856Z,4.50
2018-07-20T17:49:01.949Z,5.03
2018-07-20T17:51:30.035Z,5.47
2018-07-20T17:53:58.132Z,4.70
2018-07-20T17:56:26.266Z,3.73
2018-07-20T17:58:54.303Z,3.57
2018-07-20T18:01:23.370Z,3.57
2018-07-20T18:03:51.469Z,4.60
2018-07-20T18:06:19.547Z,3.53
2018-07-20T18:08:47.654Z,3.20
2018-07-20T18:11:15.744Z,4.30
2018-07-20T18:13:43.836Z,4.08
2018-07-20T18:16:11.946Z,3.33
2018-07-20T18:18:40.044Z,4.90
2018-07-20T18:21:08.257Z,4.07
2018-07-20T18:23:36.338Z,7.03
2018-07-20T18:26:04.417Z,6.83
2018-07-20T18:28:32.559Z,5.60
2018-07-20T18:31:01.396Z,4.45
2018-07-20T18:33:29.475Z,5.23
2018-07-20T18:35:58.158Z,6.00
2018-07-20T18:38:26.256Z,4.43
2018-07-20T18:40:54.350Z,4.90
2018-07-20T18:43:22.434Z,5.87
2018-07-20T18:45:50.522Z,5.77
2018-07-20T18:48:18.630Z,5.40
2018-07-20T18:50:46.698Z,5.93
2018-07-20T18:53:14.870Z,4.87
2018-07-20T18:55:42.946Z,4.70
2018-07-20T18:58:11.052Z,6.83
2018-07-20T19:00:39.126Z,6.93
2018-07-20T19:03:07.492Z,4.83
2018-07-20T19:05:35.591Z,6.30
2018-07-20T19:08:03.681Z,5.60
2018-07-20T19:10:31.784Z,6.23
2018-07-20T19:12:59.874Z,5.67
2018-07-20T19:15:27.972Z,4.90
2018-07-20T19:17:56.041Z,5.00
2018-07-20T19:20:24.148Z,4.80
2018-07-20T19:22:52.231Z,6.83
2018-07-20T19:25:20.337Z,5.17
2018-07-20T19:27:48.498Z,5.07
2018-07-20T19:30:17.119Z,7.47
2018-07-20T19:32:45.193Z,4.90
2018-07-20T19:35:13.528Z,6.07
2018-07-20T19:37:41.605Z,6.53
2018-07-20T19:40:09.686Z,5.75
2018-07-20T19:42:37.823Z,6.17
2018-07-20T19:45:06.142Z,5.03
2018-07-20T19:47:35.238Z,5.58
2018-07-20T19:50:03.336Z,4.70
2018-07-20T19:52:31.478Z,6.17
2018-07-20T19:54:59.547Z,5.53
2018-07-20T19:57:27.613Z,5.87
2018-07-20T19:59:55.703Z,6.00
2018-07-20T20:02:23.806Z,5.70
2018-07-20T20:04:51.955Z,4.97
2018-07-20T20:07:20.047Z,5.37
2018-07-20T20:09:48.138Z,6.95
2018-07-20T20:12:16.278Z,5.70
2018-07-20T20:14:44.386Z,5.63
2018-07-20T20:17:12.473Z,4.53
2018-07-20T20:19:40.580Z,7.47
2018-07-20T20:22:08.652Z,5.37
2018-07-20T20:24:36.769Z,5.80
2018-07-20T20:27:05.044Z,8.43
2018-07-20T20:29:33.194Z,7.63
2018-07-20T20:32:01.214Z,6.57
2018-07-20T20:34:29.319Z,6.17
2018-07-20T20:36:57.399Z,6.10
2018-07-20T20:39:25.490Z,6.30
2018-07-20T20:41:53.572Z,6.43
2018-07-20T20:44:21.651Z,6.50
2018-07-20T20:46:49.764Z,7.40
2018-07-20T20:49:17.859Z,7.73
2018-07-20T20:51:45.959Z,6.70
2018-07-20T20:54:14.086Z,7.90
2018-07-20T20:56:42.184Z,7.35
2018-07-20T20:59:10.291Z,6.50
2018-07-20T21:01:38.374Z,7.07
2018-07-20T21:04:06.463Z,6.50
2018-07-20T21:06:34.562Z,7.97
2018-07-20T21:09:02.658Z,7.25
2018-07-20T21:11:30.750Z,6.15
2018-07-20T21:13:58.838Z,9.30
2018-07-20T21:16:26.913Z,9.08
2018-07-20T21:18:54.981Z,6.60
2018-07-20T22:13:09.673Z,6.60
2018-07-20T22:15:37.821Z,11.87
2018-07-20T22:18:06.004Z,9.20
2018-07-20T22:20:34.090Z,8.30
2018-07-20T22:23:02.183Z,9.40
2018-07-20T22:25:30.294Z,8.40
2018-07-20T22:27:58.392Z,7.97
2018-07-20T22:30:26.475Z,10.57
2018-07-20T22:32:54.585Z,10.90
2018-07-20T22:35:22.684Z,10.10
2018-07-20T22:37:50.763Z,9.83
2018-07-20T22:40:18.858Z,9.60
2018-07-20T22:42:46.938Z,9.97
2018-07-20T22:45:15.143Z,9.33
2018-07-20T22:47:43.307Z,9.77
2018-07-20T22:50:11.430Z,8.73
2018-07-20T22:52:40.784Z,6.92
2018-07-20T22:55:08.887Z,9.27
2018-07-20T22:57:36.960Z,8.87
2018-07-20T23:00:05.253Z,9.90
2018-07-20T23:02:33.350Z,8.70
2018-07-20T23:05:01.440Z,10.63
2018-07-20T23:07:29.530Z,8.40
2018-07-20T23:09:57.608Z,8.30
2018-07-20T23:12:25.704Z,9.80
2018-07-20T23:14:53.878Z,8.90
2018-07-20T23:17:21.963Z,9.17
2018-07-20T23:19:50.272Z,9.13
2018-07-20T23:22:18.353Z,9.43
2018-07-20T23:24:46.459Z,10.65
2018-07-20T23:27:14.592Z,10.37
2018-07-20T23:29:42.700Z,9.90
2018-07-20T23:32:11.658Z,10.28
2018-07-20T23:34:39.747Z,10.03
2018-07-20T23:37:07.826Z,9.80
2018-07-20T23:39:35.928Z,10.13
2018-07-20T23:42:04.024Z,9.20
2018-07-20T23:44:32.141Z,11.27
2018-07-20T23:47:00.231Z,7.73
2018-07-20T23:49:28.340Z,8.73
2018-07-20T23:51:56.423Z,8.20
2018-07-20T23:54:24.524Z,7.92
2018-07-20T23:56:52.600Z,8.30
2018-07-20T23:59:20.712Z,10.20
